CheckWX is a tool to help pilots better visualize weather data.  It is not intended as a substitute for an official pre-flight weather briefing.

01:56:05 UTC

LTBA TAF
Atatürk International Airport
Istanbul, Turkey
TAF LTBA 182240Z 1900/2006 VRB02KT CAVOK TEMPO 1915/1918 04012KT

Mar-19@
00:00 UTC

Mar-19 @ 00:00 UTC

Mar-20@
06:00 UTC

Mar-20 @ 06:00 UTC

TAF LTBA 182240Z 1900/2006 VRB02KT CAVOK
Wind
  • Variable at 2 KTS
Conditions
No significant weather
Cloud Levels
  • No significant clouds

Mar-19@
15:00 UTC

Mar-19 @ 15:00 UTC

Mar-19@
18:00 UTC

Mar-19 @ 18:00 UTC

TEMPO 1915/1918 04012KT

Temporary

Temporary Changes expected for less than half the time period

Wind
  • 040° at 12 KTS